Main page
Satellite images 15-day forecastsClimateMarine weather Cyclones Lightning AirportsFAQ Newsletter About
Weather : Europe Africa North America South America Asia Australia-Oceania Others
Languages Contact

Mangalore, India

Bajpe

latitude: 12-55N, longitude: 074-53E, elevation: 102 m


METAR: out of date (40793 hours)
short-TAF: VOML 201800Z 2021/2106 VRB02KT 6000 SCT010 SCT080 TEMPO 2021/2103 1500 RA/BR SCT005 SCT012 BKN080
long-TAF: VOML 201500Z 2018/2124 VRB02KT 6000 SCT010 SCT080 TEMPO 2021/2103 1500 RA/BR SCT005 SCT012 BKN080 BECMG 2105/2106 29010KT TEMPO 2109/2115 5000 RA SCT015 FEW025CB BKN080 BECMG 2118/2119 VRB02KT TEMPO 2121/2124 3000 RA/BR SCT005 SCT012 BKN080

Time: 07:32 (02:02 UTC)

Forecast

The report was made 8 hours and 7 minutes ago, at 17:55 UTC  
Forecast valid from 20 at 21 UTC to 21 at 06 UTC
Wind 02 kt from variable directions
Visibility 6000 m
Scattered clouds at a height of 1000 ft
Scattered clouds at a height of 8000 ft
Temporary
from 20 at 21 UTC to 21 at 03 UTC
Visibility 1500 m
Scattered clouds at a height of 500 ft
Scattered clouds at a height of 1200 ft
Broken clouds at a height of 8000 ft

Forecast

The report was made 11 hours and 9 minutes ago, at 14:53 UTC  
Forecast valid from 20 at 18 UTC to 21 at 24 UTC
Wind 02 kt from variable directions
Visibility 6000 m
Scattered clouds at a height of 1000 ft
Scattered clouds at a height of 8000 ft
Temporary
from 20 at 21 UTC to 21 at 03 UTC
Visibility 1500 m
Scattered clouds at a height of 500 ft
Scattered clouds at a height of 1200 ft
Broken clouds at a height of 8000 ft
Becoming
from 21 at 05 UTC to 21 at 06 UTC
Wind 10 kt from the West/Northwest
Temporary
from 21 at 09 UTC to 21 at 15 UTC
Visibility 5000 m
Scattered clouds at a height of 1500 ft
Few clouds at a height of 2500 ft , Cumulonimbus.
Broken clouds at a height of 8000 ft
rain
Becoming
from 21 at 18 UTC to 21 at 19 UTC
Wind 02 kt from variable directions
Temporary
from 21 at 21 UTC to 21 at 24 UTC
Visibility 3000 m
Scattered clouds at a height of 500 ft
Scattered clouds at a height of 1200 ft
Broken clouds at a height of 8000 ft
The information on this site is subject to a disclaimer
Weather : Europe Africa North America South America Asia Australia-Oceania Others
Satellite images 15-day forecastsClimateMarine weather Cyclones Lightning AirportsFAQ Languages Contact Newsletter About